Time;durP1;ratioP1;P1;durP2;ratioP2;P2;SDS_P1;SDS_P2;PMS_P1;PMS_P2;Temp;Humidity;BMP_temperature;BMP_pressure;BME280_temperature;BME280_humidity;BME280_pressure;Samples;Min_cycle;Max_cycle;Signal;HPM_P1;HPM_P2
2022/09/20 00:00:45;;;;;;;3.00;1.20;;;8.10;99.90;;;;;;8377974;28;20177;-70
2022/09/20 00:04:48;;;;;;;2.60;1.57;;;8.20;99.90;;;;;;8375540;28;20189;-70
2022/09/20 00:08:49;;;;;;;2.17;1.70;;;8.20;99.90;;;;;;8378514;28;20571;-69
2022/09/20 00:12:51;;;;;;;7.07;1.93;;;8.20;99.90;;;;;;8380871;28;20281;-68
2022/09/20 00:16:51;;;;;;;3.53;1.60;;;8.20;99.90;;;;;;8379989;28;20177;-69
2022/09/20 00:20:52;;;;;;;4.10;1.60;;;8.30;99.90;;;;;;8380602;28;20220;-69
2022/09/20 00:24:53;;;;;;;2.83;1.50;;;8.30;99.90;;;;;;8378747;28;20181;-69
2022/09/20 00:28:56;;;;;;;4.00;1.50;;;8.30;99.90;;;;;;8380077;28;20193;-69
2022/09/20 00:32:57;;;;;;;2.57;1.60;;;8.30;99.90;;;;;;8379061;28;20234;-69
2022/09/20 00:36:58;;;;;;;1.60;1.33;;;8.30;99.90;;;;;;8378857;28;20177;-69
2022/09/20 00:40:58;;;;;;;2.10;1.20;;;8.30;99.90;;;;;;8382152;28;20196;-69
2022/09/20 00:45:03;;;;;;;3.63;1.23;;;8.30;99.90;;;;;;8378502;28;20185;-70
2022/09/20 00:49:21;;;;;;;3.47;1.10;;;8.20;99.90;;;;;;8376961;28;20185;-69
2022/09/20 00:53:29;;;;;;;1.17;0.97;;;8.20;99.90;;;;;;8378943;28;20235;-69
2022/09/20 00:57:34;;;;;;;1.30;1.00;;;8.20;99.90;;;;;;8380407;28;20189;-70
2022/09/20 01:01:35;;;;;;;3.47;1.20;;;8.10;99.90;;;;;;8381086;28;20181;-69
2022/09/20 01:05:37;;;;;;;0.90;0.80;;;8.20;99.90;;;;;;8380354;28;20177;-70
2022/09/20 01:09:38;;;;;;;2.03;1.00;;;8.20;99.90;;;;;;8378433;28;20186;-72
2022/09/20 01:13:39;;;;;;;1.73;1.03;;;8.30;99.90;;;;;;8377462;28;20223;-69
2022/09/20 01:17:45;;;;;;;2.83;1.03;;;8.30;99.90;;;;;;8377849;28;20173;-69
2022/09/20 01:21:47;;;;;;;2.70;1.00;;;8.20;99.90;;;;;;8380464;28;20182;-68
2022/09/20 01:26:31;;;;;;;1.77;1.07;;;8.20;99.90;;;;;;8376259;28;20188;-68
2022/09/20 01:30:41;;;;;;;2.10;1.10;;;8.20;99.90;;;;;;8392252;28;20260;-69
2022/09/20 01:34:48;;;;;;;4.70;1.17;;;8.20;99.90;;;;;;8380223;28;20191;-68
2022/09/20 01:39:04;;;;;;;3.50;1.10;;;8.20;99.90;;;;;;8373948;28;20349;-69
2022/09/20 01:43:09;;;;;;;1.83;1.20;;;8.30;99.90;;;;;;8378667;28;21003;-69
2022/09/20 01:47:20;;;;;;;1.30;0.90;;;8.20;99.90;;;;;;8383643;28;20230;-68
2022/09/20 01:51:39;;;;;;;1.10;0.90;;;8.10;99.90;;;;;;8383798;28;20209;-68
2022/09/20 01:55:50;;;;;;;3.27;1.10;;;8.00;99.90;;;;;;8380740;28;20217;-68
2022/09/20 01:59:51;;;;;;;2.80;1.17;;;8.00;99.90;;;;;;8384010;28;20271;-68
2022/09/20 02:04:07;;;;;;;3.10;1.50;;;8.10;99.90;;;;;;8379178;28;20699;-68
2022/09/20 02:08:33;;;;;;;4.20;2.10;;;8.10;99.90;;;;;;8381407;28;20189;-68
2022/09/20 02:12:51;;;;;;;9.40;2.43;;;8.10;99.90;;;;;;8382177;28;20219;-68
2022/09/20 02:17:03;;;;;;;2.70;2.23;;;8.20;99.90;;;;;;8383895;28;20196;-69
2022/09/20 02:21:23;;;;;;;9.23;3.57;;;8.30;99.90;;;;;;8385367;28;20269;-67
2022/09/20 02:25:54;;;;;;;5.13;3.90;;;8.40;99.90;;;;;;8383749;28;20181;-68
2022/09/20 02:30:34;;;;;;;7.50;5.50;;;8.50;99.90;;;;;;8383316;28;20189;-68
2022/09/20 02:35:05;;;;;;;9.17;5.60;;;8.60;99.90;;;;;;8371685;28;20194;-68
2022/09/20 02:39:21;;;;;;;8.43;5.87;;;8.70;99.90;;;;;;8384839;28;20185;-68
2022/09/20 02:43:30;;;;;;;11.43;7.03;;;8.70;99.90;;;;;;8397319;28;20225;-68
2022/09/20 02:47:52;;;;;;;9.40;5.90;;;8.80;99.90;;;;;;8382958;28;20177;-68
2022/09/20 02:52:20;;;;;;;9.37;7.10;;;8.80;99.90;;;;;;8373962;28;20205;-70
2022/09/20 02:56:50;;;;;;;13.10;7.90;;;8.90;99.90;;;;;;8350055;28;20196;-69
2022/09/20 03:00:54;;;;;;;8.80;7.67;;;8.90;99.90;;;;;;8365189;28;20221;-68
2022/09/20 03:05:14;;;;;;;10.10;8.40;;;9.00;99.90;;;;;;8379222;28;20487;-68
2022/09/20 03:09:53;;;;;;;13.20;8.33;;;9.00;99.90;;;;;;8378469;28;20219;-69
2022/09/20 03:14:06;;;;;;;9.07;7.80;;;9.00;99.90;;;;;;8379636;28;20333;-73
2022/09/20 03:18:48;;;;;;;9.17;7.57;;;9.10;99.90;;;;;;8385953;28;20185;-69
2022/09/20 03:23:26;;;;;;;11.37;7.90;;;9.10;99.90;;;;;;8372833;28;20220;-69
2022/09/20 03:27:30;;;;;;;12.03;7.90;;;9.10;99.90;;;;;;8381340;28;20292;-69
2022/09/20 03:31:43;;;;;;;8.73;7.53;;;9.20;99.90;;;;;;8380281;28;20237;-68
2022/09/20 03:35:49;;;;;;;10.47;7.63;;;9.20;99.90;;;;;;8381321;28;20220;-69
2022/09/20 03:39:56;;;;;;;10.00;8.03;;;9.20;99.90;;;;;;8380428;28;20185;-70
2022/09/20 03:43:59;;;;;;;11.17;8.30;;;9.30;99.90;;;;;;8379298;28;20185;-69
2022/09/20 03:48:31;;;;;;;13.33;7.60;;;9.30;99.90;;;;;;8383589;28;20188;-69
2022/09/20 03:52:51;;;;;;;8.77;6.70;;;9.30;99.90;;;;;;8378859;28;20205;-68
2022/09/20 03:57:04;;;;;;;11.30;7.90;;;9.30;99.90;;;;;;8372338;28;20230;-68
2022/09/20 04:01:14;;;;;;;13.00;6.77;;;9.30;99.90;;;;;;8379927;28;20289;-70
2022/09/20 04:05:23;;;;;;;7.73;6.80;;;9.40;99.90;;;;;;8378046;28;20227;-69
2022/09/20 04:09:42;;;;;;;8.90;6.83;;;9.40;99.90;;;;;;8381825;28;20184;-68
2022/09/20 04:14:01;;;;;;;12.30;7.10;;;9.40;99.90;;;;;;8380988;28;20214;-70
2022/09/20 04:18:24;;;;;;;9.40;7.50;;;9.40;99.90;;;;;;8381201;28;20210;-69
2022/09/20 04:22:27;;;;;;;11.00;6.50;;;9.40;99.90;;;;;;8378415;28;20221;-69
2022/09/20 04:26:35;;;;;;;8.73;7.07;;;9.40;99.90;;;;;;8377842;28;20190;-71
2022/09/20 04:30:42;;;;;;;9.30;6.83;;;9.40;99.90;;;;;;8379766;28;20274;-69
2022/09/20 04:39:26;;;;;;;13.13;7.87;;;9.40;99.90;;;;;;8379807;28;20200;-69
2022/09/20 04:43:39;;;;;;;10.07;8.17;;;9.40;99.90;;;;;;8381912;28;20220;-70
2022/09/20 04:47:43;;;;;;;9.03;7.93;;;9.40;99.90;;;;;;8377255;28;20261;-69
2022/09/20 04:51:50;;;;;;;9.60;8.60;;;9.40;99.90;;;;;;8379461;28;20209;-70
2022/09/20 04:56:00;;;;;;;10.00;7.60;;;9.40;99.90;;;;;;8382764;28;20196;-69
2022/09/20 05:00:17;;;;;;;10.47;7.83;;;9.40;99.90;;;;;;8383523;28;20177;-69
2022/09/20 05:04:52;;;;;;;8.10;7.07;;;9.40;99.90;;;;;;8392418;28;20272;-68
2022/09/20 05:09:30;;;;;;;9.80;6.53;;;9.40;99.90;;;;;;8379677;28;20201;-69
2022/09/20 05:13:50;;;;;;;7.53;6.40;;;9.40;99.90;;;;;;8384694;28;20219;-69
2022/09/20 05:18:12;;;;;;;7.80;7.00;;;9.40;99.90;;;;;;8383922;28;20189;-68
2022/09/20 05:22:34;;;;;;;8.27;7.47;;;9.40;99.90;;;;;;8384552;28;20246;-66
2022/09/20 05:26:38;;;;;;;10.47;7.20;;;9.40;99.90;;;;;;8387011;28;20383;-67
2022/09/20 05:30:59;;;;;;;8.77;7.57;;;9.40;99.90;;;;;;8389221;28;20216;-67
2022/09/20 05:35:15;;;;;;;9.40;7.03;;;9.40;99.90;;;;;;8401353;28;20208;-68
2022/09/20 05:39:34;;;;;;;8.57;7.77;;;9.40;99.90;;;;;;8384037;28;20181;-70
2022/09/20 05:44:10;;;;;;;9.10;7.90;;;9.50;99.90;;;;;;8386210;28;20197;-67
2022/09/20 05:48:11;;;;;;;10.10;8.07;;;9.50;99.90;;;;;;8384251;28;20277;-66
2022/09/20 05:52:40;;;;;;;10.70;8.20;;;9.50;99.90;;;;;;8385968;28;20197;-70
2022/09/20 05:57:22;;;;;;;11.73;7.60;;;9.50;99.90;;;;;;8388194;28;20174;-68
2022/09/20 06:01:41;;;;;;;12.13;8.47;;;9.40;99.90;;;;;;8382749;28;20406;-69
2022/09/20 06:06:09;;;;;;;10.43;7.53;;;9.40;99.90;;;;;;8384798;28;20181;-68
2022/09/20 06:10:30;;;;;;;9.70;8.57;;;9.40;99.90;;;;;;8386818;28;20196;-67
2022/09/20 06:14:53;;;;;;;11.27;8.73;;;9.30;99.90;;;;;;8381091;28;20329;-67
2022/09/20 06:19:16;;;;;;;12.20;7.83;;;9.30;99.90;;;;;;8375453;28;20333;-67
2022/09/20 06:23:17;;;;;;;10.30;6.87;;;9.20;99.90;;;;;;8387729;28;20191;-67
2022/09/20 06:27:25;;;;;;;9.00;7.37;;;9.30;99.90;;;;;;8385527;28;20185;-67
2022/09/20 06:31:26;;;;;;;9.00;7.47;;;9.30;99.90;;;;;;8390184;28;20331;-68
2022/09/20 06:35:39;;;;;;;7.93;7.13;;;9.40;99.90;;;;;;8387220;28;20239;-68
2022/09/20 06:44:14;;;;;;;7.37;6.53;;;9.50;99.90;;;;;;8386219;28;20200;-68
2022/09/20 06:48:15;;;;;;;8.87;6.63;;;9.50;99.90;;;;;;8382629;28;20292;-66
2022/09/20 06:52:21;;;;;;;10.40;6.63;;;9.60;99.90;;;;;;8382998;28;20228;-68
2022/09/20 06:56:25;;;;;;;7.67;6.77;;;9.60;99.90;;;;;;8383190;28;20239;-68
2022/09/20 07:00:26;;;;;;;8.17;6.50;;;9.70;99.90;;;;;;8372492;28;20262;-67
2022/09/20 07:04:27;;;;;;;8.27;5.77;;;9.80;99.90;;;;;;8381137;28;20333;-67
2022/09/20 07:08:28;;;;;;;9.73;6.37;;;9.80;99.90;;;;;;8385881;28;20217;-66
2022/09/20 07:12:32;;;;;;;6.87;5.37;;;9.90;99.90;;;;;;8382391;28;20226;-67
2022/09/20 07:16:35;;;;;;;6.07;5.47;;;10.20;99.90;;;;;;8383568;28;20187;-67
2022/09/20 07:20:36;;;;;;;7.00;5.10;;;10.20;99.90;;;;;;8382092;28;20277;-68
2022/09/20 07:24:40;;;;;;;5.67;4.97;;;10.20;99.90;;;;;;8381659;28;20185;-68
2022/09/20 07:28:46;;;;;;;6.97;5.27;;;10.00;99.90;;;;;;8382458;28;20269;-67
2022/09/20 07:32:47;;;;;;;6.17;4.50;;;10.10;99.90;;;;;;8382768;28;20207;-67
2022/09/20 07:36:50;;;;;;;6.13;4.90;;;10.40;99.90;;;;;;8377543;28;20190;-68
2022/09/20 07:40:59;;;;;;;5.40;4.47;;;10.60;99.90;;;;;;8384789;28;20206;-66
2022/09/20 07:45:01;;;;;;;4.53;4.03;;;10.70;99.90;;;;;;8381737;28;20212;-68
2022/09/20 07:49:05;;;;;;;6.30;3.80;;;11.00;99.90;;;;;;8380325;28;20243;-69
2022/09/20 07:53:09;;;;;;;5.07;3.43;;;11.00;99.90;;;;;;8385376;28;20289;-68
2022/09/20 07:57:10;;;;;;;4.73;3.50;;;11.00;99.90;;;;;;8376700;28;20480;-67
2022/09/20 08:01:13;;;;;;;5.17;3.40;;;11.00;99.90;;;;;;8380665;28;20194;-66
2022/09/20 08:05:13;;;;;;;4.77;2.77;;;11.10;99.90;;;;;;8380322;28;20517;-68
2022/09/20 08:09:15;;;;;;;5.40;3.57;;;11.20;99.90;;;;;;8379851;28;20202;-67
2022/09/20 08:13:16;;;;;;;3.67;3.00;;;11.10;99.90;;;;;;8380383;28;20228;-67
2022/09/20 08:17:20;;;;;;;4.90;4.13;;;11.00;99.90;;;;;;8382084;28;20276;-67
2022/09/20 08:21:21;;;;;;;6.23;4.30;;;10.90;99.90;;;;;;8384117;28;20212;-67
2022/09/20 08:25:21;;;;;;;4.80;2.80;;;10.90;99.90;;;;;;8380468;28;20192;-68
2022/09/20 08:29:22;;;;;;;4.53;2.60;;;10.90;99.90;;;;;;8379406;28;20197;-68
2022/09/20 08:33:23;;;;;;;4.33;3.00;;;10.90;99.90;;;;;;8385611;28;20289;-68
2022/09/20 08:37:30;;;;;;;13.07;7.87;;;11.00;99.90;;;;;;8382301;28;20184;-67
2022/09/20 08:41:35;;;;;;;6.10;4.07;;;11.20;99.90;;;;;;8380604;28;20203;-67
2022/09/20 08:45:37;;;;;;;4.10;3.20;;;11.10;99.90;;;;;;8381006;28;20187;-67
2022/09/20 08:49:39;;;;;;;5.43;2.90;;;11.10;99.90;;;;;;8386613;28;20217;-66
2022/09/20 08:53:51;;;;;;;4.20;2.87;;;11.30;99.90;;;;;;8385665;28;20220;-66
2022/09/20 08:57:57;;;;;;;3.40;3.10;;;11.40;99.90;;;;;;8383737;28;20248;-68
2022/09/20 09:01:58;;;;;;;3.40;3.03;;;11.70;99.90;;;;;;8403557;28;20181;-67
2022/09/20 09:06:00;;;;;;;3.77;3.10;;;11.90;99.90;;;;;;8384193;28;20191;-67
2022/09/20 09:10:01;;;;;;;4.80;3.07;;;11.90;99.90;;;;;;8385718;28;20189;-67
2022/09/20 09:18:43;;;;;;;3.83;3.20;;;12.00;99.90;;;;;;8384683;28;20254;-66
2022/09/20 09:22:46;;;;;;;2.90;2.30;;;11.80;99.90;;;;;;8385217;28;20181;-67
2022/09/20 09:26:47;;;;;;;4.80;3.07;;;12.20;99.90;;;;;;8386736;28;20238;-68
2022/09/20 09:30:51;;;;;;;2.57;2.37;;;12.40;99.90;;;;;;8387436;28;20205;-68
2022/09/20 09:34:52;;;;;;;2.60;1.90;;;12.60;99.90;;;;;;8383370;28;20188;-68
2022/09/20 09:39:26;;;;;;;4.23;1.73;;;13.40;99.90;;;;;;8386752;28;20677;-68
2022/09/20 09:43:34;;;;;;;5.13;2.17;;;13.60;1.00;;;;;;8387390;28;20193;-68
2022/09/20 09:47:36;;;;;;;3.03;1.70;;;13.30;1.00;;;;;;8399455;28;20181;-69
2022/09/20 09:51:37;;;;;;;3.07;1.80;;;13.10;10.00;;;;;;8385806;28;20219;-67
2022/09/20 09:55:57;;;;;;;4.20;3.80;;;12.60;99.90;;;;;;8381158;28;20181;-67
2022/09/20 10:00:20;;;;;;;4.50;2.73;;;12.40;1.00;;;;;;8384818;28;20190;-67
2022/09/20 10:04:57;;;;;;;4.23;2.40;;;12.40;99.90;;;;;;8379895;28;20188;-67
2022/09/20 10:09:27;;;;;;;6.07;2.60;;;12.60;1.00;;;;;;8383340;28;20228;-67
2022/09/20 10:13:46;;;;;;;3.50;2.00;;;12.80;1.00;;;;;;8385956;28;20232;-68
2022/09/20 10:18:16;;;;;;;2.23;1.60;;;12.80;99.90;;;;;;8379696;28;20186;-66
2022/09/20 10:22:39;;;;;;;6.70;1.80;;;12.90;99.90;;;;;;8369756;28;20202;-67
2022/09/20 10:27:05;;;;;;;3.57;1.50;;;12.80;99.90;;;;;;8378967;28;20181;-67
2022/09/20 10:31:11;;;;;;;2.83;2.10;;;12.90;99.90;;;;;;8384875;28;20212;-67
2022/09/20 10:35:21;;;;;;;3.43;2.43;;;12.90;99.90;;;;;;8386165;28;20186;-67
2022/09/20 10:39:39;;;;;;;5.23;2.07;;;13.00;99.90;;;;;;8384603;28;20216;-66
2022/09/20 10:43:52;;;;;;;7.37;3.70;;;13.30;99.90;;;;;;8379556;28;20509;-67
2022/09/20 10:48:02;;;;;;;5.77;2.53;;;13.30;22.80;;;;;;8382525;28;20200;-67
2022/09/20 10:52:27;;;;;;;3.83;2.30;;;13.30;1.00;;;;;;8381440;28;20282;-68
2022/09/20 10:56:35;;;;;;;14.70;6.43;;;13.40;14.00;;;;;;8381203;28;20248;-67
2022/09/20 11:01:05;;;;;;;4.07;1.90;;;13.50;10.90;;;;;;8373710;28;20203;-67
2022/09/20 11:05:28;;;;;;;2.50;1.80;;;13.50;1.00;;;;;;8370809;28;20177;-68
2022/09/20 11:09:36;;;;;;;1.77;1.10;;;13.70;1.00;;;;;;8384130;28;20169;-71
2022/09/20 11:13:48;;;;;;;4.20;1.27;;;13.90;1.00;;;;;;8380909;28;20236;-67
2022/09/20 11:18:04;;;;;;;2.97;1.60;;;14.30;1.00;;;;;;8382243;28;20177;-67
2022/09/20 11:22:31;;;;;;;2.37;1.20;;;14.30;99.90;;;;;;8383485;28;20193;-68
2022/09/20 11:26:32;;;;;;;3.37;1.20;;;14.60;99.90;;;;;;8386052;28;20181;-67
2022/09/20 11:30:37;;;;;;;3.00;1.10;;;14.80;99.90;;;;;;8388959;28;20181;-68
2022/09/20 11:35:15;;;;;;;3.00;1.10;;;14.70;99.90;;;;;;8383763;28;20199;-69
2022/09/20 11:39:28;;;;;;;3.50;1.93;;;14.40;99.90;;;;;;8383176;28;20181;-68
2022/09/20 11:43:29;;;;;;;4.63;1.20;;;14.60;99.90;;;;;;8381598;28;20196;-68
2022/09/20 11:47:37;;;;;;;5.00;0.90;;;15.10;99.90;;;;;;8380940;28;20243;-67
2022/09/20 11:51:49;;;;;;;2.27;0.60;;;15.50;99.90;;;;;;8382115;28;20215;-68
2022/09/20 11:56:04;;;;;;;3.40;0.83;;;16.00;99.90;;;;;;8379313;28;20185;-68
2022/09/20 12:00:07;;;;;;;1.83;0.40;;;15.70;99.90;;;;;;8383117;28;20193;-67
2022/09/20 12:04:17;;;;;;;2.90;1.00;;;14.70;99.90;;;;;;8374448;28;20508;-68
2022/09/20 12:08:36;;;;;;;2.30;0.90;;;14.00;99.90;;;;;;8376519;28;20195;-69
2022/09/20 12:12:45;;;;;;;2.43;1.40;;;13.80;99.90;;;;;;8380638;28;20244;-68
2022/09/20 12:16:51;;;;;;;0.90;0.20;;;13.80;99.90;;;;;;8382966;28;20237;-69
2022/09/20 12:21:08;;;;;;;0.60;0.30;;;14.40;99.90;;;;;;8379555;28;20196;-68
2022/09/20 12:25:36;;;;;;;2.20;0.70;;;15.00;99.90;;;;;;8379823;28;20262;-68
2022/09/20 12:30:16;;;;;;;1.57;0.43;;;15.00;99.90;;;;;;8377414;28;20289;-67
2022/09/20 12:34:17;;;;;;;3.50;0.27;;;14.70;99.90;;;;;;8373900;28;20488;-67
2022/09/20 12:38:19;;;;;;;2.00;1.07;;;14.50;99.90;;;;;;8382805;28;20228;-68
2022/09/20 12:42:31;;;;;;;1.57;0.50;;;14.80;99.90;;;;;;8380051;28;20184;-69
2022/09/20 12:46:37;;;;;;;1.17;0.33;;;14.90;99.90;;;;;;8383335;28;20227;-69
2022/09/20 12:54:58;;;;;;;1.10;0.70;;;14.20;99.90;;;;;;8383216;28;20211;-73
2022/09/20 12:59:06;;;;;;;2.37;0.60;;;13.90;99.90;;;;;;8379552;28;20188;-68
2022/09/20 13:03:33;;;;;;;1.63;0.60;;;13.70;99.90;;;;;;8376681;28;20197;-69
2022/09/20 13:07:42;;;;;;;1.63;0.70;;;13.70;99.90;;;;;;8381722;28;20217;-67
2022/09/20 13:11:59;;;;;;;0.57;0.20;;;14.20;99.90;;;;;;8382872;28;20244;-67
2022/09/20 13:16:04;;;;;;;1.30;0.43;;;14.60;99.90;;;;;;8379953;28;20241;-69
2022/09/20 13:20:06;;;;;;;0.60;0.40;;;14.60;99.90;;;;;;8382012;28;20185;-68
2022/09/20 13:24:17;;;;;;;1.40;0.83;;;14.50;99.90;;;;;;8375434;28;20190;-68
2022/09/20 13:28:32;;;;;;;4.00;0.53;;;14.50;99.90;;;;;;8379056;28;20196;-68
2022/09/20 13:32:33;;;;;;;2.37;0.70;;;14.30;99.90;;;;;;8373586;28;20260;-69
2022/09/20 13:36:37;;;;;;;4.77;0.50;;;14.20;99.90;;;;;;8388143;28;20234;-68
2022/09/20 13:40:46;;;;;;;0.73;0.30;;;14.60;99.90;;;;;;8388008;28;20184;-69
2022/09/20 13:44:47;;;;;;;1.70;0.33;;;15.10;99.90;;;;;;8382661;28;20181;-69
2022/09/20 13:48:57;;;;;;;2.73;0.50;;;15.10;99.90;;;;;;8402567;28;20287;-68
2022/09/20 13:53:00;;;;;;;0.73;0.30;;;15.00;99.90;;;;;;8380980;28;20234;-66
2022/09/20 13:57:05;;;;;;;2.73;0.33;;;15.10;99.90;;;;;;8386883;28;20192;-67
2022/09/20 14:01:29;;;;;;;2.80;0.67;;;15.20;99.90;;;;;;8388323;28;20189;-69
2022/09/20 14:05:30;;;;;;;0.53;0.30;;;15.10;99.90;;;;;;8389147;28;20188;-68
2022/09/20 14:09:38;;;;;;;1.23;0.43;;;14.60;99.90;;;;;;8389309;28;20196;-67
2022/09/20 14:13:45;;;;;;;2.90;0.57;;;13.90;99.90;;;;;;8402344;28;20227;-69
2022/09/20 14:17:46;;;;;;;1.70;0.40;;;13.50;99.90;;;;;;8386426;28;20199;-67
2022/09/20 14:21:48;;;;;;;0.40;0.20;;;13.10;99.90;;;;;;8386364;28;20185;-67
2022/09/20 14:26:20;;;;;;;1.70;0.20;;;12.90;99.90;;;;;;8382321;28;20189;-66
2022/09/20 14:30:31;;;;;;;0.60;0.20;;;12.70;99.90;;;;;;8388355;28;20223;-67
2022/09/20 14:34:40;;;;;;;0.33;0.20;;;12.60;99.90;;;;;;8384635;28;20209;-67
2022/09/20 14:38:46;;;;;;;1.80;0.30;;;12.40;99.90;;;;;;8373990;28;20186;-70
2022/09/20 14:42:52;;;;;;;0.40;0.20;;;12.30;99.90;;;;;;8383099;28;20182;-67
2022/09/20 14:46:53;;;;;;;0.63;0.30;;;12.20;1.00;;;;;;8397113;28;20189;-69
2022/09/20 14:51:24;;;;;;;0.77;0.30;;;12.10;1.00;;;;;;8381502;28;20535;-67
2022/09/20 14:55:29;;;;;;;1.13;0.30;;;12.10;1.00;;;;;;8382897;28;20240;-67
2022/09/20 14:59:40;;;;;;;1.50;0.33;;;12.20;1.00;;;;;;8383433;28;20264;-67
2022/09/20 15:03:46;;;;;;;1.60;0.73;;;12.30;1.00;;;;;;8381695;28;20201;-68
2022/09/20 15:07:47;;;;;;;0.50;0.30;;;12.20;1.00;;;;;;8400704;28;20181;-67
2022/09/20 15:12:12;;;;;;;2.70;0.40;;;12.20;99.90;;;;;;8381288;28;20213;-67
2022/09/20 15:16:19;;;;;;;2.50;0.70;;;12.30;99.90;;;;;;8381970;28;20189;-67
2022/09/20 15:20:21;;;;;;;1.27;0.60;;;12.40;99.90;;;;;;8379627;28;20376;-66
2022/09/20 15:24:22;;;;;;;0.60;0.40;;;12.30;99.90;;;;;;8382895;28;20219;-66
2022/09/20 15:28:23;;;;;;;1.00;0.37;;;12.40;99.90;;;;;;8378015;28;20268;-67
2022/09/20 15:32:34;;;;;;;1.33;0.30;;;12.40;1.00;;;;;;8381634;28;20302;-66
2022/09/20 15:36:35;;;;;;;1.63;0.40;;;12.30;1.00;;;;;;8384078;28;20205;-68
2022/09/20 15:40:39;;;;;;;1.17;0.43;;;12.20;1.00;;;;;;8371478;28;20185;-69
2022/09/20 15:44:40;;;;;;;2.23;0.47;;;12.20;59.70;;;;;;8381846;28;20298;-67
2022/09/20 15:48:42;;;;;;;2.63;0.50;;;12.20;53.80;;;;;;8382143;28;20215;-69
2022/09/20 15:52:49;;;;;;;1.90;0.50;;;12.20;1.00;;;;;;8380476;28;20262;-71
2022/09/20 15:56:52;;;;;;;1.87;0.30;;;12.20;1.00;;;;;;8378092;28;20192;-67
2022/09/20 16:00:54;;;;;;;1.67;0.50;;;12.20;1.00;;;;;;8394482;28;20193;-68
2022/09/20 16:04:55;;;;;;;1.13;0.40;;;12.10;93.50;;;;;;8379978;28;20821;-66
2022/09/20 16:08:56;;;;;;;2.07;0.30;;;12.10;89.20;;;;;;8376352;28;20216;-68
2022/09/20 16:12:59;;;;;;;1.23;0.57;;;12.10;99.90;;;;;;8381159;28;20221;-67
2022/09/20 16:17:03;;;;;;;0.80;0.53;;;12.00;99.90;;;;;;8372667;28;20185;-70
2022/09/20 16:21:10;;;;;;;3.07;0.77;;;12.00;99.90;;;;;;8377528;28;20185;-67
2022/09/20 16:25:11;;;;;;;0.60;0.40;;;11.80;99.90;;;;;;8370773;28;20185;-66
2022/09/20 16:29:15;;;;;;;1.67;0.57;;;11.80;99.90;;;;;;8379870;28;20192;-67
2022/09/20 16:33:16;;;;;;;2.23;0.60;;;11.70;1.00;;;;;;8378460;28;20270;-67
2022/09/20 16:37:17;;;;;;;2.17;0.60;;;11.60;1.00;;;;;;8379111;28;20182;-67
2022/09/20 16:41:18;;;;;;;0.73;0.37;;;11.40;19.50;;;;;;8376327;28;20189;-67
2022/09/20 16:45:26;;;;;;;0.70;0.50;;;11.30;99.90;;;;;;8379633;28;20185;-67
2022/09/20 16:49:27;;;;;;;0.90;0.63;;;11.30;99.90;;;;;;8380796;28;20200;-68
2022/09/20 16:53:31;;;;;;;0.60;0.40;;;11.10;99.90;;;;;;8381994;28;20204;-67
2022/09/20 16:57:35;;;;;;;1.97;0.60;;;11.00;1.00;;;;;;8383906;28;20183;-67
2022/09/20 17:01:40;;;;;;;0.93;0.50;;;10.90;1.00;;;;;;8379865;28;20184;-68
2022/09/20 17:05:43;;;;;;;1.97;0.70;;;10.80;55.00;;;;;;8372102;28;20188;-67
2022/09/20 17:10:01;;;;;;;1.67;0.50;;;10.70;99.90;;;;;;8384575;28;20230;-67
2022/09/20 17:14:03;;;;;;;1.33;0.40;;;10.60;99.90;;;;;;8390029;28;20220;-65
2022/09/20 17:18:06;;;;;;;0.87;0.50;;;10.50;1.00;;;;;;8387751;28;20199;-66
2022/09/20 17:22:08;;;;;;;1.30;0.43;;;10.40;99.90;;;;;;8389714;28;20311;-67
2022/09/20 17:26:21;;;;;;;0.97;0.60;;;10.40;99.90;;;;;;8388162;28;20505;-66
2022/09/20 17:30:22;;;;;;;1.27;0.50;;;10.30;17.20;;;;;;8386768;28;20287;-68
2022/09/20 17:34:24;;;;;;;1.17;0.60;;;10.20;1.00;;;;;;8387827;28;20211;-67
2022/09/20 17:38:26;;;;;;;2.00;0.60;;;10.00;1.00;;;;;;8386597;28;20176;-67
2022/09/20 17:42:28;;;;;;;1.43;0.57;;;9.90;99.90;;;;;;8387198;28;20219;-67
2022/09/20 17:46:31;;;;;;;1.23;0.70;;;9.80;99.90;;;;;;8401724;28;20191;-67
2022/09/20 17:50:32;;;;;;;1.93;0.60;;;9.60;99.90;;;;;;8381827;28;20405;-69
2022/09/20 17:54:33;;;;;;;1.20;0.77;;;9.50;1.00;;;;;;8383773;28;20215;-68
2022/09/20 17:58:35;;;;;;;0.90;0.70;;;9.30;99.90;;;;;;8385555;28;20188;-70
2022/09/20 18:02:36;;;;;;;1.43;0.70;;;9.20;1.00;;;;;;8382843;28;20190;-68
2022/09/20 18:06:42;;;;;;;1.60;0.90;;;9.00;99.90;;;;;;8381165;28;20198;-70
2022/09/20 18:10:58;;;;;;;2.70;1.00;;;8.90;1.00;;;;;;8382578;28;20263;-68
2022/09/20 18:14:59;;;;;;;0.90;0.60;;;8.80;85.40;;;;;;8384973;28;20513;-68
2022/09/20 18:19:00;;;;;;;1.20;1.00;;;8.70;99.00;;;;;;8385935;28;20305;-68
2022/09/20 18:23:01;;;;;;;1.43;1.00;;;8.70;99.90;;;;;;8384424;28;20204;-68
2022/09/20 18:27:03;;;;;;;1.93;1.00;;;8.60;99.90;;;;;;8384402;28;20185;-69
2022/09/20 18:31:04;;;;;;;1.77;1.07;;;8.70;99.90;;;;;;8384136;28;20200;-69
2022/09/20 18:35:05;;;;;;;2.30;0.73;;;8.80;1.00;;;;;;8382772;28;20185;-69
2022/09/20 18:39:07;;;;;;;1.27;0.80;;;8.80;99.90;;;;;;8381871;28;20230;-68
2022/09/20 18:43:08;;;;;;;1.77;1.00;;;8.90;99.90;;;;;;8383726;28;20250;-69
2022/09/20 18:47:09;;;;;;;1.37;0.70;;;8.90;99.90;;;;;;8383771;28;20185;-69
2022/09/20 18:51:10;;;;;;;3.77;1.07;;;8.90;99.90;;;;;;8382935;28;20216;-69
2022/09/20 18:55:11;;;;;;;2.30;0.87;;;9.00;1.00;;;;;;8384610;28;20532;-70
2022/09/20 18:59:15;;;;;;;4.10;1.10;;;8.90;99.90;;;;;;8384703;28;20227;-69
2022/09/20 19:03:45;;;;;;;2.63;1.00;;;8.90;1.00;;;;;;8380371;28;20185;-67
2022/09/20 19:08:06;;;;;;;1.80;0.97;;;8.90;99.90;;;;;;8399010;28;20744;-67
2022/09/20 19:12:44;;;;;;;2.10;1.27;;;8.80;1.00;;;;;;8382532;28;20228;-68
2022/09/20 19:16:49;;;;;;;2.20;1.17;;;8.70;90.20;;;;;;8383705;28;20213;-68
2022/09/20 19:21:12;;;;;;;2.53;1.30;;;8.70;99.90;;;;;;8383217;28;20189;-71
2022/09/20 19:25:19;;;;;;;1.87;1.00;;;8.60;99.90;;;;;;8398547;28;20215;-68
2022/09/20 19:29:24;;;;;;;2.23;1.23;;;8.50;1.00;;;;;;8383248;28;20182;-69
2022/09/20 19:33:26;;;;;;;2.13;1.30;;;8.30;1.00;;;;;;8373326;28;20239;-69
2022/09/20 19:37:50;;;;;;;4.10;1.87;;;8.20;71.20;;;;;;8382616;28;20212;-68
2022/09/20 19:41:55;;;;;;;4.00;1.43;;;8.10;99.90;;;;;;8382347;28;20192;-68
2022/09/20 19:46:02;;;;;;;2.27;1.47;;;8.00;99.90;;;;;;8375376;28;20280;-69
2022/09/20 19:50:03;;;;;;;2.63;1.77;;;7.90;99.90;;;;;;8381979;28;20242;-68
2022/09/20 19:54:05;;;;;;;2.30;1.87;;;7.90;99.90;;;;;;8384171;28;20238;-69
2022/09/20 19:58:07;;;;;;;2.87;2.07;;;7.70;99.90;;;;;;8382583;28;20527;-68
2022/09/20 20:02:11;;;;;;;5.40;2.17;;;7.60;99.90;;;;;;8383987;28;20188;-69
2022/09/20 20:06:41;;;;;;;4.10;2.73;;;7.60;99.90;;;;;;8384004;28;20184;-68
2022/09/20 20:11:07;;;;;;;3.63;2.33;;;7.60;99.90;;;;;;8381315;28;20220;-70
2022/09/20 20:15:58;;;;;;;3.10;2.70;;;7.60;99.90;;;;;;8384676;28;20200;-68
2022/09/20 20:20:22;;;;;;;3.10;2.30;;;7.70;99.90;;;;;;8380371;28;20193;-68
2022/09/20 20:24:30;;;;;;;4.63;2.57;;;7.80;99.90;;;;;;8373524;28;20181;-69
2022/09/20 20:28:31;;;;;;;5.87;2.70;;;7.90;99.90;;;;;;8393882;28;20177;-68
2022/09/20 20:32:31;;;;;;;3.77;2.43;;;8.00;99.90;;;;;;8379827;28;20228;-67
2022/09/20 20:36:32;;;;;;;3.63;2.70;;;8.00;99.90;;;;;;8382476;28;20660;-69
2022/09/20 20:40:33;;;;;;;5.97;3.07;;;8.10;99.90;;;;;;8383879;28;20185;-69
2022/09/20 20:44:34;;;;;;;2.37;2.00;;;8.10;99.90;;;;;;8380469;28;20177;-68
2022/09/20 20:48:35;;;;;;;4.83;2.17;;;8.20;99.90;;;;;;8382830;28;20181;-68
2022/09/20 20:52:37;;;;;;;2.87;2.63;;;8.20;99.90;;;;;;8381280;28;20222;-69
2022/09/20 20:56:38;;;;;;;2.73;2.00;;;8.30;99.90;;;;;;8385090;28;20216;-68
2022/09/20 21:00:39;;;;;;;4.40;2.20;;;8.30;99.90;;;;;;8380897;28;20567;-69
2022/09/20 21:04:41;;;;;;;3.10;2.47;;;8.30;99.90;;;;;;8382107;28;20193;-68
2022/09/20 21:08:44;;;;;;;2.40;1.93;;;8.30;99.90;;;;;;8373811;28;20196;-68
2022/09/20 21:12:45;;;;;;;2.37;2.17;;;8.30;99.90;;;;;;8378704;28;20213;-69
2022/09/20 21:16:46;;;;;;;3.23;2.33;;;8.20;99.90;;;;;;8382339;28;20193;-69
2022/09/20 21:20:46;;;;;;;3.87;2.40;;;8.20;99.90;;;;;;8378630;28;20185;-69
2022/09/20 21:24:48;;;;;;;3.53;2.33;;;8.20;99.90;;;;;;8384170;28;20604;-69
2022/09/20 21:28:51;;;;;;;3.23;2.20;;;8.20;99.90;;;;;;8377746;28;20186;-68
2022/09/20 21:32:54;;;;;;;5.13;2.67;;;8.20;99.90;;;;;;8378332;28;20209;-69
2022/09/20 21:36:56;;;;;;;3.63;2.33;;;8.10;99.90;;;;;;8370092;28;20185;-69
2022/09/20 21:41:05;;;;;;;5.20;2.57;;;8.10;99.90;;;;;;8378402;28;20257;-68
2022/09/20 21:45:08;;;;;;;4.57;2.30;;;8.00;99.90;;;;;;8380237;28;20186;-67
2022/09/20 21:49:10;;;;;;;8.30;2.47;;;8.00;99.90;;;;;;8382151;28;20205;-67
2022/09/20 21:53:14;;;;;;;3.47;1.90;;;7.90;99.90;;;;;;8376901;28;20216;-68
2022/09/20 21:57:15;;;;;;;3.87;1.90;;;7.80;99.90;;;;;;8385470;28;20188;-68
2022/09/20 22:01:18;;;;;;;4.23;2.50;;;7.70;99.90;;;;;;8382758;28;20354;-68
2022/09/20 22:05:20;;;;;;;3.07;1.90;;;7.60;99.90;;;;;;8384263;28;20272;-68